sensor_id;sensor_type;location;lat;lon;timestamp;pressure;altitude;pressure_sealevel;temperature;humidity
21520;BME280;10921;53.614;9.882;2023-02-19T00:01:13;101292.41;;;6.56;94.32
21520;BME280;10921;53.614;9.882;2023-02-19T00:03:41;101286.25;;;6.56;94.45
21520;BME280;10921;53.614;9.882;2023-02-19T00:06:09;101276.34;;;6.45;94.31
21520;BME280;10921;53.614;9.882;2023-02-19T00:08:37;101278.50;;;6.53;94.57
21520;BME280;10921;53.614;9.882;2023-02-19T00:11:05;101286.84;;;6.59;94.38
21520;BME280;10921;53.614;9.882;2023-02-19T00:13:41;101288.25;;;6.52;95.03
21520;BME280;10921;53.614;9.882;2023-02-19T00:16:14;101282.19;;;6.63;94.82
21520;BME280;10921;53.614;9.882;2023-02-19T00:18:42;101258.22;;;6.39;94.26
21520;BME280;10921;53.614;9.882;2023-02-19T00:21:09;101296.50;;;6.60;94.00
21520;BME280;10921;53.614;9.882;2023-02-19T00:23:36;101293.56;;;6.65;94.21
21520;BME280;10921;53.614;9.882;2023-02-19T00:26:05;101261.38;;;6.44;94.08
21520;BME280;10921;53.614;9.882;2023-02-19T00:28:43;101300.44;;;6.67;94.00
21520;BME280;10921;53.614;9.882;2023-02-19T00:31:26;101286.13;;;6.70;95.44
21520;BME280;10921;53.614;9.882;2023-02-19T00:33:58;101259.09;;;6.52;94.12
21520;BME280;10921;53.614;9.882;2023-02-19T00:36:26;101276.78;;;6.64;94.06
21520;BME280;10921;53.614;9.882;2023-02-19T00:38:53;101231.19;;;6.34;94.18
21520;BME280;10921;53.614;9.882;2023-02-19T00:41:21;101293.25;;;6.69;94.38
21520;BME280;10921;53.614;9.882;2023-02-19T00:44:02;101281.25;;;6.64;94.94
21520;BME280;10921;53.614;9.882;2023-02-19T00:46:52;101297.69;;;6.69;94.03
21520;BME280;10921;53.614;9.882;2023-02-19T00:49:19;101307.44;;;6.68;94.07
21520;BME280;10921;53.614;9.882;2023-02-19T00:51:47;101305.84;;;6.66;93.87
21520;BME280;10921;53.614;9.882;2023-02-19T00:54:15;101276.13;;;6.48;94.08
21520;BME280;10921;53.614;9.882;2023-02-19T00:56:42;101299.25;;;6.59;94.08
21520;BME280;10921;53.614;9.882;2023-02-19T00:59:08;101311.06;;;6.67;94.11
21520;BME280;10921;53.614;9.882;2023-02-19T01:01:36;101298.75;;;6.66;94.37
21520;BME280;10921;53.614;9.882;2023-02-19T01:04:02;101291.09;;;6.62;94.18
21520;BME280;10921;53.614;9.882;2023-02-19T01:06:32;101311.06;;;6.67;94.36
21520;BME280;10921;53.614;9.882;2023-02-19T01:09:00;101308.50;;;6.66;94.26
21520;BME280;10921;53.614;9.882;2023-02-19T01:11:26;101292.81;;;6.63;94.06
21520;BME280;10921;53.614;9.882;2023-02-19T01:13:56;101306.72;;;6.66;94.21
21520;BME280;10921;53.614;9.882;2023-02-19T01:16:23;101305.50;;;6.58;94.18
21520;BME280;10921;53.614;9.882;2023-02-19T01:18:50;101305.66;;;6.56;94.03
21520;BME280;10921;53.614;9.882;2023-02-19T01:21:24;101296.09;;;6.54;94.46
21520;BME280;10921;53.614;9.882;2023-02-19T01:23:51;101318.38;;;6.64;94.42
21520;BME280;10921;53.614;9.882;2023-02-19T01:26:23;101311.56;;;6.60;94.45
21520;BME280;10921;53.614;9.882;2023-02-19T01:28:50;101323.78;;;6.62;94.11
21520;BME280;10921;53.614;9.882;2023-02-19T01:31:20;101269.13;;;6.34;94.12
21520;BME280;10921;53.614;9.882;2023-02-19T01:33:49;101313.16;;;6.62;94.27
21520;BME280;10921;53.614;9.882;2023-02-19T01:36:17;101310.63;;;6.61;94.11
21520;BME280;10921;53.614;9.882;2023-02-19T01:38:44;101316.88;;;6.60;93.94
21520;BME280;10921;53.614;9.882;2023-02-19T01:41:13;101312.53;;;6.59;93.90
21520;BME280;10921;53.614;9.882;2023-02-19T01:46:44;101304.25;;;6.51;93.39
21520;BME280;10921;53.614;9.882;2023-02-19T01:51:48;101308.25;;;6.44;94.08
21520;BME280;10921;53.614;9.882;2023-02-19T01:54:19;101305.69;;;6.42;94.53
21520;BME280;10921;53.614;9.882;2023-02-19T01:56:48;101302.53;;;6.37;93.51
21520;BME280;10921;53.614;9.882;2023-02-19T01:59:15;101278.31;;;6.16;93.71
21520;BME280;10921;53.614;9.882;2023-02-19T02:01:43;101308.44;;;6.28;93.94
21520;BME280;10921;53.614;9.882;2023-02-19T02:04:12;101256.63;;;5.97;93.95
21520;BME280;10921;53.614;9.882;2023-02-19T02:06:59;101306.53;;;6.30;95.50
21520;BME280;10921;53.614;9.882;2023-02-19T02:09:28;101306.88;;;6.25;94.19
21520;BME280;10921;53.614;9.882;2023-02-19T02:12:14;101306.03;;;6.25;94.21
21520;BME280;10921;53.614;9.882;2023-02-19T02:14:44;101296.75;;;6.18;94.25
21520;BME280;10921;53.614;9.882;2023-02-19T02:17:30;101299.63;;;6.15;95.27
21520;BME280;10921;53.614;9.882;2023-02-19T02:22:48;101309.06;;;6.19;93.67
21520;BME280;10921;53.614;9.882;2023-02-19T02:25:26;101314.03;;;6.11;93.44
21520;BME280;10921;53.614;9.882;2023-02-19T02:31:03;101311.78;;;6.05;93.59
21520;BME280;10921;53.614;9.882;2023-02-19T02:33:41;101313.88;;;5.99;93.69
21520;BME280;10921;53.614;9.882;2023-02-19T02:36:21;101313.78;;;6.01;94.41
21520;BME280;10921;53.614;9.882;2023-02-19T02:38:50;101319.16;;;5.99;93.61
21520;BME280;10921;53.614;9.882;2023-02-19T02:41:19;101306.53;;;5.90;93.71
21520;BME280;10921;53.614;9.882;2023-02-19T02:43:46;101317.47;;;5.98;93.62
21520;BME280;10921;53.614;9.882;2023-02-19T02:46:18;101316.94;;;5.93;93.69
21520;BME280;10921;53.614;9.882;2023-02-19T02:48:51;101314.38;;;5.92;93.87
21520;BME280;10921;53.614;9.882;2023-02-19T02:54:07;101308.50;;;5.87;94.05
21520;BME280;10921;53.614;9.882;2023-02-19T02:56:55;101302.53;;;5.83;93.29
21520;BME280;10921;53.614;9.882;2023-02-19T02:59:28;101286.72;;;5.69;93.59
21520;BME280;10921;53.614;9.882;2023-02-19T03:02:04;101310.72;;;5.80;93.75
21520;BME280;10921;53.614;9.882;2023-02-19T03:05:05;101301.34;;;5.75;93.95
21520;BME280;10921;53.614;9.882;2023-02-19T03:08:13;101312.03;;;5.73;93.96
21520;BME280;10921;53.614;9.882;2023-02-19T03:10:58;101264.47;;;5.45;94.09
21520;BME280;10921;53.614;9.882;2023-02-19T03:13:46;101318.28;;;5.72;93.30
21520;BME280;10921;53.614;9.882;2023-02-19T03:16:33;101314.03;;;5.70;93.45
21520;BME280;10921;53.614;9.882;2023-02-19T03:19:24;101320.38;;;5.67;93.51
21520;BME280;10921;53.614;9.882;2023-02-19T03:22:04;101322.28;;;5.65;93.48
21520;BME280;10921;53.614;9.882;2023-02-19T03:24:40;101327.47;;;5.66;93.61
21520;BME280;10921;53.614;9.882;2023-02-19T03:27:28;101295.28;;;5.46;93.73
21520;BME280;10921;53.614;9.882;2023-02-19T03:30:00;101330.25;;;5.65;93.73
21520;BME280;10921;53.614;9.882;2023-02-19T03:32:45;101335.41;;;5.66;94.52
21520;BME280;10921;53.614;9.882;2023-02-19T03:35:18;101338.38;;;5.62;93.79
21520;BME280;10921;53.614;9.882;2023-02-19T03:40:20;101339.00;;;5.65;93.96
21520;BME280;10921;53.614;9.882;2023-02-19T03:43:08;101348.47;;;5.70;94.92
21520;BME280;10921;53.614;9.882;2023-02-19T03:45:48;101343.56;;;5.63;94.24
21520;BME280;10921;53.614;9.882;2023-02-19T03:48:34;101349.41;;;5.69;93.75
21520;BME280;10921;53.614;9.882;2023-02-19T03:51:23;101339.84;;;5.66;94.39
21520;BME280;10921;53.614;9.882;2023-02-19T03:56:46;101344.00;;;5.70;94.26
21520;BME280;10921;53.614;9.882;2023-02-19T03:59:28;101328.91;;;5.58;94.22
21520;BME280;10921;53.614;9.882;2023-02-19T04:02:07;101358.09;;;5.71;94.01
21520;BME280;10921;53.614;9.882;2023-02-19T04:04:40;101364.34;;;5.70;93.64
21520;BME280;10921;53.614;9.882;2023-02-19T04:07:09;101368.03;;;5.67;93.53
21520;BME280;10921;53.614;9.882;2023-02-19T04:09:39;101362.19;;;5.62;93.47
21520;BME280;10921;53.614;9.882;2023-02-19T04:12:07;101360.59;;;5.59;93.50
21520;BME280;10921;53.614;9.882;2023-02-19T04:14:38;101367.50;;;5.62;93.29
21520;BME280;10921;53.614;9.882;2023-02-19T04:17:12;101378.38;;;5.57;93.60
21520;BME280;10921;53.614;9.882;2023-02-19T04:19:40;101347.09;;;5.36;93.23
21520;BME280;10921;53.614;9.882;2023-02-19T04:22:09;101363.63;;;5.39;93.29
21520;BME280;10921;53.614;9.882;2023-02-19T04:24:42;101371.88;;;5.35;93.63
21520;BME280;10921;53.614;9.882;2023-02-19T04:27:11;101379.91;;;5.33;93.18
21520;BME280;10921;53.614;9.882;2023-02-19T04:29:38;101381.97;;;5.28;93.20
21520;BME280;10921;53.614;9.882;2023-02-19T04:32:04;101395.38;;;5.25;93.09
21520;BME280;10921;53.614;9.882;2023-02-19T04:34:31;101387.44;;;5.11;93.18
21520;BME280;10921;53.614;9.882;2023-02-19T04:36:58;101425.16;;;5.28;93.17
21520;BME280;10921;53.614;9.882;2023-02-19T04:39:25;101397.09;;;5.12;93.16
21520;BME280;10921;53.614;9.882;2023-02-19T04:41:51;101419.28;;;5.23;93.25
21520;BME280;10921;53.614;9.882;2023-02-19T04:44:18;101426.78;;;5.17;93.10
21520;BME280;10921;53.614;9.882;2023-02-19T04:46:44;101426.84;;;5.15;93.24
21520;BME280;10921;53.614;9.882;2023-02-19T04:49:11;101426.19;;;5.12;92.89
21520;BME280;10921;53.614;9.882;2023-02-19T04:51:38;101411.72;;;5.03;93.38
21520;BME280;10921;53.614;9.882;2023-02-19T04:54:05;101436.75;;;5.12;93.36
21520;BME280;10921;53.614;9.882;2023-02-19T04:56:31;101431.66;;;5.09;93.39
21520;BME280;10921;53.614;9.882;2023-02-19T04:58:58;101427.38;;;5.06;93.29
21520;BME280;10921;53.614;9.882;2023-02-19T05:01:24;101441.38;;;5.08;93.51
21520;BME280;10921;53.614;9.882;2023-02-19T05:03:51;101438.06;;;5.05;93.56
21520;BME280;10921;53.614;9.882;2023-02-19T05:06:18;101438.81;;;5.07;93.59
21520;BME280;10921;53.614;9.882;2023-02-19T05:08:44;101403.38;;;4.81;93.65
21520;BME280;10921;53.614;9.882;2023-02-19T05:11:11;101448.63;;;5.05;93.51
21520;BME280;10921;53.614;9.882;2023-02-19T05:13:39;101417.94;;;4.88;93.57
21520;BME280;10921;53.614;9.882;2023-02-19T05:16:15;101432.31;;;4.98;94.10
21520;BME280;10921;53.614;9.882;2023-02-19T05:18:43;101441.84;;;5.01;93.42
21520;BME280;10921;53.614;9.882;2023-02-19T05:21:10;101441.25;;;4.95;93.58
21520;BME280;10921;53.614;9.882;2023-02-19T05:23:37;101455.59;;;4.91;93.76
21520;BME280;10921;53.614;9.882;2023-02-19T05:26:11;101467.13;;;4.90;93.64
21520;BME280;10921;53.614;9.882;2023-02-19T05:28:37;101453.50;;;4.82;93.20
21520;BME280;10921;53.614;9.882;2023-02-19T05:31:06;101462.47;;;4.80;93.41
21520;BME280;10921;53.614;9.882;2023-02-19T05:33:35;101468.00;;;4.75;93.36
21520;BME280;10921;53.614;9.882;2023-02-19T05:36:05;101469.50;;;4.65;93.46
21520;BME280;10921;53.614;9.882;2023-02-19T05:38:32;101477.59;;;4.62;93.35
21520;BME280;10921;53.614;9.882;2023-02-19T05:41:06;101479.56;;;4.58;93.82
21520;BME280;10921;53.614;9.882;2023-02-19T05:43:33;101459.50;;;4.40;93.44
21520;BME280;10921;53.614;9.882;2023-02-19T05:46:00;101484.63;;;4.47;93.42
21520;BME280;10921;53.614;9.882;2023-02-19T05:48:26;101485.72;;;4.43;93.55
21520;BME280;10921;53.614;9.882;2023-02-19T05:50:53;101468.19;;;4.27;93.61
21520;BME280;10921;53.614;9.882;2023-02-19T05:53:19;101489.56;;;4.38;93.73
21520;BME280;10921;53.614;9.882;2023-02-19T05:55:46;101494.25;;;4.33;93.79
21520;BME280;10921;53.614;9.882;2023-02-19T05:58:12;101497.16;;;4.28;93.72
21520;BME280;10921;53.614;9.882;2023-02-19T06:00:38;101503.28;;;4.29;93.80
21520;BME280;10921;53.614;9.882;2023-02-19T06:03:05;101506.13;;;4.26;93.87
21520;BME280;10921;53.614;9.882;2023-02-19T06:05:31;101509.94;;;4.20;93.83
21520;BME280;10921;53.614;9.882;2023-02-19T06:07:58;101515.31;;;4.18;93.86
21520;BME280;10921;53.614;9.882;2023-02-19T06:10:24;101524.31;;;4.14;93.76
21520;BME280;10921;53.614;9.882;2023-02-19T06:12:52;101528.94;;;4.11;94.16
21520;BME280;10921;53.614;9.882;2023-02-19T06:15:19;101534.47;;;4.06;94.09
21520;BME280;10921;53.614;9.882;2023-02-19T06:17:46;101548.69;;;4.04;94.09
21520;BME280;10921;53.614;9.882;2023-02-19T06:20:14;101548.00;;;4.00;94.28
21520;BME280;10921;53.614;9.882;2023-02-19T06:22:41;101528.03;;;3.79;94.17
21520;BME280;10921;53.614;9.882;2023-02-19T06:25:07;101543.88;;;3.79;93.93
21520;BME280;10921;53.614;9.882;2023-02-19T06:27:38;101555.72;;;3.87;94.53
21520;BME280;10921;53.614;9.882;2023-02-19T06:30:05;101576.59;;;3.92;94.65
21520;BME280;10921;53.614;9.882;2023-02-19T06:32:31;101581.13;;;3.90;94.64
21520;BME280;10921;53.614;9.882;2023-02-19T06:34:58;101586.41;;;3.90;94.76
21520;BME280;10921;53.614;9.882;2023-02-19T06:37:25;101586.53;;;3.87;94.60
21520;BME280;10921;53.614;9.882;2023-02-19T06:39:51;101574.69;;;3.78;94.49
21520;BME280;10921;53.614;9.882;2023-02-19T06:42:17;101583.22;;;3.83;94.58
21520;BME280;10921;53.614;9.882;2023-02-19T06:44:44;101559.72;;;3.62;94.67
21520;BME280;10921;53.614;9.882;2023-02-19T06:47:11;101600.16;;;3.79;94.60
21520;BME280;10921;53.614;9.882;2023-02-19T06:49:40;101578.22;;;3.62;94.74
21520;BME280;10921;53.614;9.882;2023-02-19T06:52:06;101622.22;;;3.78;94.76
21520;BME280;10921;53.614;9.882;2023-02-19T06:54:33;101623.06;;;3.79;94.81
21520;BME280;10921;53.614;9.882;2023-02-19T06:57:00;101624.16;;;3.75;95.02
21520;BME280;10921;53.614;9.882;2023-02-19T06:59:26;101637.28;;;3.76;94.97
21520;BME280;10921;53.614;9.882;2023-02-19T07:01:53;101626.63;;;3.78;95.29
21520;BME280;10921;53.614;9.882;2023-02-19T07:04:19;101632.06;;;3.75;95.76
21520;BME280;10921;53.614;9.882;2023-02-19T07:06:46;101630.22;;;3.77;95.75
21520;BME280;10921;53.614;9.882;2023-02-19T07:09:12;101602.19;;;3.57;95.34
21520;BME280;10921;53.614;9.882;2023-02-19T07:11:39;101641.00;;;3.72;95.79
21520;BME280;10921;53.614;9.882;2023-02-19T07:14:13;101655.53;;;3.81;96.14
21520;BME280;10921;53.614;9.882;2023-02-19T07:16:40;101619.72;;;3.58;95.90
21520;BME280;10921;53.614;9.882;2023-02-19T07:19:08;101672.91;;;3.85;95.91
21520;BME280;10921;53.614;9.882;2023-02-19T07:21:35;101680.81;;;3.85;95.95
21520;BME280;10921;53.614;9.882;2023-02-19T07:24:03;101682.22;;;3.92;96.53
21520;BME280;10921;53.614;9.882;2023-02-19T07:26:30;101682.94;;;3.96;96.69
21520;BME280;10921;53.614;9.882;2023-02-19T07:28:57;101682.84;;;3.97;96.96
21520;BME280;10921;53.614;9.882;2023-02-19T07:31:23;101681.81;;;4.00;96.94
21520;BME280;10921;53.614;9.882;2023-02-19T07:33:50;101672.19;;;3.99;97.14
21520;BME280;10921;53.614;9.882;2023-02-19T07:36:18;101699.91;;;4.24;97.58
21520;BME280;10921;53.614;9.882;2023-02-19T07:38:45;101708.34;;;4.31;97.27
21520;BME280;10921;53.614;9.882;2023-02-19T07:41:12;101663.81;;;4.08;97.41
21520;BME280;10921;53.614;9.882;2023-02-19T07:43:40;101720.59;;;4.49;97.62
21520;BME280;10921;53.614;9.882;2023-02-19T07:46:09;101715.94;;;4.54;97.47
21520;BME280;10921;53.614;9.882;2023-02-19T07:48:37;101722.75;;;4.58;97.52
21520;BME280;10921;53.614;9.882;2023-02-19T07:51:05;101720.03;;;4.60;97.15
21520;BME280;10921;53.614;9.882;2023-02-19T07:53:33;101726.00;;;4.64;96.90
21520;BME280;10921;53.614;9.882;2023-02-19T07:56:05;101739.16;;;4.65;96.42
21520;BME280;10921;53.614;9.882;2023-02-19T07:58:32;101736.50;;;4.65;96.56
21520;BME280;10921;53.614;9.882;2023-02-19T08:01:10;101741.00;;;4.63;96.94
21520;BME280;10921;53.614;9.882;2023-02-19T08:03:39;101740.25;;;4.61;96.38
21520;BME280;10921;53.614;9.882;2023-02-19T08:06:06;101748.88;;;4.65;96.26
21520;BME280;10921;53.614;9.882;2023-02-19T08:08:32;101747.31;;;4.60;96.11
21520;BME280;10921;53.614;9.882;2023-02-19T08:11:04;101758.59;;;4.64;96.58
21520;BME280;10921;53.614;9.882;2023-02-19T08:13:49;101755.47;;;4.73;97.07
21520;BME280;10921;53.614;9.882;2023-02-19T08:16:17;101751.34;;;4.68;96.38
21520;BME280;10921;53.614;9.882;2023-02-19T08:19:02;101738.59;;;4.58;96.75
21520;BME280;10921;53.614;9.882;2023-02-19T08:21:28;101738.81;;;4.71;97.34
21520;BME280;10921;53.614;9.882;2023-02-19T08:23:55;101721.72;;;4.61;97.52
21520;BME280;10921;53.614;9.882;2023-02-19T08:26:21;101751.47;;;4.82;97.90
21520;BME280;10921;53.614;9.882;2023-02-19T08:28:48;101751.38;;;4.83;97.90
21520;BME280;10921;53.614;9.882;2023-02-19T08:31:14;101756.09;;;4.94;98.20
21520;BME280;10921;53.614;9.882;2023-02-19T08:33:41;101761.91;;;5.01;98.53
21520;BME280;10921;53.614;9.882;2023-02-19T08:36:09;101762.25;;;5.10;98.72
21520;BME280;10921;53.614;9.882;2023-02-19T08:38:36;101766.09;;;5.20;98.60
21520;BME280;10921;53.614;9.882;2023-02-19T08:41:07;101772.31;;;5.35;98.90
21520;BME280;10921;53.614;9.882;2023-02-19T08:43:35;101771.75;;;5.46;98.77
21520;BME280;10921;53.614;9.882;2023-02-19T08:46:02;101765.50;;;5.47;98.80
21520;BME280;10921;53.614;9.882;2023-02-19T08:48:29;101772.91;;;5.56;98.67
21520;BME280;10921;53.614;9.882;2023-02-19T08:50:57;101757.97;;;5.55;98.47
21520;BME280;10921;53.614;9.882;2023-02-19T08:53:25;101770.25;;;5.72;98.58
21520;BME280;10921;53.614;9.882;2023-02-19T08:55:51;101787.88;;;5.88;98.41
21520;BME280;10921;53.614;9.882;2023-02-19T08:58:18;101796.72;;;6.03;98.42
21520;BME280;10921;53.614;9.882;2023-02-19T09:00:45;101819.75;;;6.17;98.48
21520;BME280;10921;53.614;9.882;2023-02-19T09:03:11;101815.44;;;6.30;98.52
21520;BME280;10921;53.614;9.882;2023-02-19T09:05:38;101824.59;;;6.54;98.28
21520;BME280;10921;53.614;9.882;2023-02-19T09:08:05;101834.75;;;6.76;98.12
21520;BME280;10921;53.614;9.882;2023-02-19T09:10:31;101839.03;;;6.93;97.53
21520;BME280;10921;53.614;9.882;2023-02-19T09:12:57;101824.25;;;7.03;96.80
21520;BME280;10921;53.614;9.882;2023-02-19T09:15:24;101834.69;;;7.20;95.73
21520;BME280;10921;53.614;9.882;2023-02-19T09:17:51;101834.78;;;7.33;95.05
21520;BME280;10921;53.614;9.882;2023-02-19T09:20:18;101806.16;;;7.24;94.27
21520;BME280;10921;53.614;9.882;2023-02-19T09:22:45;101852.75;;;7.56;93.01
21520;BME280;10921;53.614;9.882;2023-02-19T09:25:11;101828.38;;;7.50;92.08
21520;BME280;10921;53.614;9.882;2023-02-19T09:27:38;101845.41;;;7.74;92.18
21520;BME280;10921;53.614;9.882;2023-02-19T09:30:05;101858.75;;;7.87;92.15
21520;BME280;10921;53.614;9.882;2023-02-19T09:32:32;101859.09;;;7.95;91.50
21520;BME280;10921;53.614;9.882;2023-02-19T09:34:59;101865.34;;;8.08;90.76
21520;BME280;10921;53.614;9.882;2023-02-19T09:37:26;101871.19;;;8.13;88.83
21520;BME280;10921;53.614;9.882;2023-02-19T09:39:54;101870.50;;;8.24;88.54
21520;BME280;10921;53.614;9.882;2023-02-19T09:42:22;101868.91;;;8.21;86.35
21520;BME280;10921;53.614;9.882;2023-02-19T09:44:53;101868.56;;;8.26;86.34
21520;BME280;10921;53.614;9.882;2023-02-19T09:47:23;101870.09;;;8.30;85.50
21520;BME280;10921;53.614;9.882;2023-02-19T09:49:54;101874.94;;;8.37;85.45
21520;BME280;10921;53.614;9.882;2023-02-19T09:52:41;101881.03;;;8.52;85.61
21520;BME280;10921;53.614;9.882;2023-02-19T09:55:14;101887.25;;;8.65;84.87
21520;BME280;10921;53.614;9.882;2023-02-19T09:57:42;101900.66;;;8.76;83.00
21520;BME280;10921;53.614;9.882;2023-02-19T10:00:20;101914.63;;;8.93;81.40
21520;BME280;10921;53.614;9.882;2023-02-19T10:02:52;101915.69;;;9.03;80.69
21520;BME280;10921;53.614;9.882;2023-02-19T10:05:20;101910.28;;;9.17;79.30
21520;BME280;10921;53.614;9.882;2023-02-19T10:07:50;101918.78;;;9.35;77.46
21520;BME280;10921;53.614;9.882;2023-02-19T10:10:23;101921.13;;;9.52;76.58
21520;BME280;10921;53.614;9.882;2023-02-19T10:12:53;101937.91;;;9.78;76.19
21520;BME280;10921;53.614;9.882;2023-02-19T10:16:06;101936.44;;;10.10;77.60
21520;BME280;10921;53.614;9.882;2023-02-19T10:18:07;101941.88;;;10.09;72.61
21520;BME280;10921;53.614;9.882;2023-02-19T10:20:36;101932.19;;;10.20;71.58
21520;BME280;10921;53.614;9.882;2023-02-19T10:23:05;101940.53;;;10.40;69.98
21520;BME280;10921;53.614;9.882;2023-02-19T10:25:34;101907.91;;;10.36;70.93
21520;BME280;10921;53.614;9.882;2023-02-19T10:28:01;101951.09;;;10.65;67.65
21520;BME280;10921;53.614;9.882;2023-02-19T10:30:31;101962.03;;;10.73;66.11
21520;BME280;10921;53.614;9.882;2023-02-19T10:33:08;101955.53;;;10.88;67.32
21520;BME280;10921;53.614;9.882;2023-02-19T10:35:37;101956.91;;;10.94;65.81
21520;BME280;10921;53.614;9.882;2023-02-19T10:38:17;101942.41;;;10.85;63.58
21520;BME280;10921;53.614;9.882;2023-02-19T10:40:45;101947.41;;;10.90;61.86
21520;BME280;10921;53.614;9.882;2023-02-19T10:43:21;101954.88;;;11.09;63.74
21520;BME280;10921;53.614;9.882;2023-02-19T10:45:57;101941.84;;;11.04;62.77
21520;BME280;10921;53.614;9.882;2023-02-19T10:48:31;101970.56;;;11.13;61.30
21520;BME280;10921;53.614;9.882;2023-02-19T10:51:08;101956.91;;;11.05;62.33
21520;BME280;10921;53.614;9.882;2023-02-19T10:53:47;101964.50;;;10.87;59.80
21520;BME280;10921;53.614;9.882;2023-02-19T10:56:22;101987.63;;;11.00;62.42
21520;BME280;10921;53.614;9.882;2023-02-19T10:58:52;101989.47;;;10.99;61.59
21520;BME280;10921;53.614;9.882;2023-02-19T11:01:21;101996.63;;;10.99;60.40
21520;BME280;10921;53.614;9.882;2023-02-19T11:03:52;101999.03;;;11.02;61.01
21520;BME280;10921;53.614;9.882;2023-02-19T11:06:32;102002.41;;;10.92;58.14
21520;BME280;10921;53.614;9.882;2023-02-19T11:09:00;102006.84;;;10.81;58.66
21520;BME280;10921;53.614;9.882;2023-02-19T11:11:34;101990.75;;;10.70;58.43
21520;BME280;10921;53.614;9.882;2023-02-19T11:14:10;101988.91;;;10.59;56.80
21520;BME280;10921;53.614;9.882;2023-02-19T11:16:46;102006.47;;;10.50;57.90
21520;BME280;10921;53.614;9.882;2023-02-19T11:19:35;102005.81;;;10.47;59.03
21520;BME280;10921;53.614;9.882;2023-02-19T11:22:36;101998.56;;;10.49;59.34
21520;BME280;10921;53.614;9.882;2023-02-19T11:25:14;102016.91;;;10.53;58.70
21520;BME280;10921;53.614;9.882;2023-02-19T11:28:00;102015.78;;;10.69;59.53
21520;BME280;10921;53.614;9.882;2023-02-19T11:30:39;101991.59;;;10.83;59.80
21520;BME280;10921;53.614;9.882;2023-02-19T11:35:42;101999.69;;;11.16;57.31
21520;BME280;10921;53.614;9.882;2023-02-19T11:38:11;102020.78;;;11.54;56.38
21520;BME280;10921;53.614;9.882;2023-02-19T11:52:30;102025.47;;;11.97;54.86
21520;BME280;10921;53.614;9.882;2023-02-19T11:58:33;102028.81;;;11.66;54.10
21520;BME280;10921;53.614;9.882;2023-02-19T12:01:46;102026.72;;;11.47;55.54
21520;BME280;10921;53.614;9.882;2023-02-19T12:35:23;102044.09;;;11.76;54.86
21520;BME280;10921;53.614;9.882;2023-02-19T12:38:13;102037.66;;;11.90;54.91
21520;BME280;10921;53.614;9.882;2023-02-19T12:43:22;102018.66;;;12.04;53.95
21520;BME280;10921;53.614;9.882;2023-02-19T12:46:00;102005.66;;;12.00;53.33
21520;BME280;10921;53.614;9.882;2023-02-19T12:48:48;102030.22;;;12.16;53.81
21520;BME280;10921;53.614;9.882;2023-02-19T12:51:23;102031.94;;;12.06;53.53
21520;BME280;10921;53.614;9.882;2023-02-19T12:54:03;102038.50;;;12.02;52.86
21520;BME280;10921;53.614;9.882;2023-02-19T12:56:48;102031.19;;;12.04;52.96
21520;BME280;10921;53.614;9.882;2023-02-19T13:02:21;102010.03;;;12.01;54.13
21520;BME280;10921;53.614;9.882;2023-02-19T13:07:26;101988.53;;;11.91;55.21
21520;BME280;10921;53.614;9.882;2023-02-19T13:10:03;102000.41;;;12.09;53.39
21520;BME280;10921;53.614;9.882;2023-02-19T13:12:35;102005.84;;;12.30;53.67
21520;BME280;10921;53.614;9.882;2023-02-19T13:15:08;102002.44;;;12.39;53.33
21520;BME280;10921;53.614;9.882;2023-02-19T13:17:49;102018.06;;;12.66;52.72
21520;BME280;10921;53.614;9.882;2023-02-19T13:20:25;102023.13;;;12.80;52.69
21520;BME280;10921;53.614;9.882;2023-02-19T13:26:36;102018.16;;;13.08;51.48
21520;BME280;10921;53.614;9.882;2023-02-19T13:37:19;102015.59;;;12.74;50.52
21520;BME280;10921;53.614;9.882;2023-02-19T13:39:53;102007.00;;;12.59;50.89
21520;BME280;10921;53.614;9.882;2023-02-19T13:42:30;102023.16;;;12.69;50.59
21520;BME280;10921;53.614;9.882;2023-02-19T13:44:59;102021.63;;;12.55;49.80
21520;BME280;10921;53.614;9.882;2023-02-19T13:50:18;102031.25;;;12.47;49.86
21520;BME280;10921;53.614;9.882;2023-02-19T13:52:45;102038.47;;;12.35;48.71
21520;BME280;10921;53.614;9.882;2023-02-19T13:55:42;102033.84;;;12.26;49.55
21520;BME280;10921;53.614;9.882;2023-02-19T13:58:38;102016.84;;;12.16;49.31
21520;BME280;10921;53.614;9.882;2023-02-19T14:01:17;101998.81;;;11.73;48.67
21520;BME280;10921;53.614;9.882;2023-02-19T14:04:06;102034.47;;;11.85;50.56
21520;BME280;10921;53.614;9.882;2023-02-19T14:18:16;102044.41;;;11.72;52.01
21520;BME280;10921;53.614;9.882;2023-02-19T14:28:02;102031.03;;;11.60;52.58
21520;BME280;10921;53.614;9.882;2023-02-19T14:30:33;102018.84;;;11.45;52.51
21520;BME280;10921;53.614;9.882;2023-02-19T14:33:01;102037.16;;;11.39;52.96
21520;BME280;10921;53.614;9.882;2023-02-19T14:35:40;102038.00;;;11.28;52.53
21520;BME280;10921;53.614;9.882;2023-02-19T14:38:19;102022.41;;;11.11;53.61
21520;BME280;10921;53.614;9.882;2023-02-19T14:40:46;102020.47;;;11.13;53.54
21520;BME280;10921;53.614;9.882;2023-02-19T14:43:17;102004.13;;;10.93;53.97
21520;BME280;10921;53.614;9.882;2023-02-19T14:45:56;102009.31;;;10.84;54.17
21520;BME280;10921;53.614;9.882;2023-02-19T14:50:58;102004.75;;;10.97;53.86
21520;BME280;10921;53.614;9.882;2023-02-19T14:53:27;102005.59;;;10.98;53.58
21520;BME280;10921;53.614;9.882;2023-02-19T14:55:55;102000.72;;;11.03;53.66
21520;BME280;10921;53.614;9.882;2023-02-19T14:58:27;101999.78;;;11.04;53.21
21520;BME280;10921;53.614;9.882;2023-02-19T15:00:55;102000.00;;;11.01;52.75
21520;BME280;10921;53.614;9.882;2023-02-19T15:03:36;102002.44;;;11.04;52.92
21520;BME280;10921;53.614;9.882;2023-02-19T15:06:10;102009.13;;;10.98;52.19
21520;BME280;10921;53.614;9.882;2023-02-19T15:08:42;102007.97;;;10.89;52.35
21520;BME280;10921;53.614;9.882;2023-02-19T15:11:21;102013.91;;;10.82;52.59
21520;BME280;10921;53.614;9.882;2023-02-19T15:14:17;102007.19;;;10.76;53.51